Time;durP1;ratioP1;P1;durP2;ratioP2;P2;SDS_P1;SDS_P2;PMS_P1;PMS_P2;Temp;Humidity;BMP_temperature;BMP_pressure;BME280_temperature;BME280_humidity;BME280_pressure;Samples;Min_cycle;Max_cycle;Signal;HPM_P1;HPM_P2
2022/05/12 00:00:35;;;;;;;;;;;;;;;20.82;68.17;99392.97;2092558;28;19978;-52
2022/05/12 00:01:37;;;;;;;;;;;;;;;20.80;68.17;99395.03;2089183;28;19985;-54
2022/05/12 00:02:38;;;;;;;;;;;;;;;20.80;68.18;99395.03;2091708;28;20302;-52
2022/05/12 00:03:39;;;;;;;;;;;;;;;20.83;68.15;99402.72;2090662;28;19932;-47
2022/05/12 00:04:40;;;;;;;;;;;;;;;20.81;68.27;99404.78;2097912;28;19928;-50
2022/05/12 00:05:41;;;;;;;;;;;;;;;20.81;68.23;99396.69;2091071;28;20019;-55
2022/05/12 00:06:42;;;;;;;;;;;;;;;20.81;67.99;99392.16;2092956;28;20012;-50
2022/05/12 00:07:45;;;;;;;;;;;;;;;20.80;68.18;99390.47;2093719;28;19936;-46
2022/05/12 00:08:45;;;;;;;;;;;;;;;20.82;67.63;99395.66;2092957;28;19999;-51
2022/05/12 00:09:47;;;;;;;;;;;;;;;20.80;68.50;99386.94;2089675;28;19928;-52
2022/05/12 00:10:48;;;;;;;;;;;;;;;20.79;68.13;99394.19;2091935;28;20379;-52
2022/05/12 00:11:49;;;;;;;;;;;;;;;20.81;68.18;99396.69;2091598;28;20777;-51
2022/05/12 00:12:51;;;;;;;;;;;;;;;20.81;67.98;99394.00;2092105;28;19928;-53
2022/05/12 00:13:52;;;;;;;;;;;;;;;20.81;67.93;99383.19;2094805;28;19990;-51
2022/05/12 00:14:53;;;;;;;;;;;;;;;20.82;67.81;99392.97;2096616;28;19935;-48
2022/05/12 00:15:55;;;;;;;;;;;;;;;20.82;67.75;99393.81;2091783;28;19985;-51
2022/05/12 00:16:56;;;;;;;;;;;;;;;20.81;68.09;99381.38;2091460;28;19928;-46
2022/05/12 00:17:58;;;;;;;;;;;;;;;20.82;68.02;99388.41;2091516;28;20049;-48
2022/05/12 00:19:00;;;;;;;;;;;;;;;20.81;68.18;99385.91;2091705;28;19928;-49
2022/05/12 00:20:00;;;;;;;;;;;;;;;20.80;68.53;99385.06;2096516;28;20006;-55
2022/05/12 00:21:02;;;;;;;;;;;;;;;20.82;68.03;99382.19;2091020;28;20125;-52
2022/05/12 00:22:03;;;;;;;;;;;;;;;20.79;67.94;99387.97;2091370;28;19988;-55
2022/05/12 00:23:10;;;;;;;;;;;;;;;20.80;68.33;99378.84;2090278;28;20768;-54
2022/05/12 00:24:11;;;;;;;;;;;;;;;20.81;68.10;99380.50;2089498;28;19935;-53
2022/05/12 00:25:13;;;;;;;;;;;;;;;20.81;68.40;99380.50;2090914;28;19939;-52
2022/05/12 00:26:14;;;;;;;;;;;;;;;20.81;68.35;99381.38;2091491;28;20386;-49
2022/05/12 00:27:15;;;;;;;;;;;;;;;20.81;68.55;99388.59;2091304;28;19928;-52
2022/05/12 00:28:17;;;;;;;;;;;;;;;20.81;68.31;99389.44;2092408;28;19928;-52
2022/05/12 00:29:18;;;;;;;;;;;;;;;20.79;68.69;99386.13;2090405;28;19930;-50
2022/05/12 00:30:19;;;;;;;;;;;;;;;20.79;68.25;99388.81;2090211;28;20608;-50
2022/05/12 00:31:21;;;;;;;;;;;;;;;20.80;68.55;99382.38;2089702;28;19977;-48
2022/05/12 00:32:23;;;;;;;;;;;;;;;20.80;68.50;99390.47;2088897;28;19928;-47
2022/05/12 00:33:27;;;;;;;;;;;;;;;20.80;68.44;99384.25;2089936;28;20973;-46
2022/05/12 00:34:28;;;;;;;;;;;;;;;20.80;68.13;99385.06;2090072;28;19932;-49
2022/05/12 00:35:29;;;;;;;;;;;;;;;20.82;68.09;99387.59;2095347;28;19928;-51
2022/05/12 00:36:30;;;;;;;;;;;;;;;20.82;68.32;99384.88;2088820;28;19938;-48
2022/05/12 00:37:31;;;;;;;;;;;;;;;20.82;68.54;99383.00;2091979;28;19927;-49
2022/05/12 00:38:34;;;;;;;;;;;;;;;20.82;68.52;99387.59;2092797;28;20593;-46
2022/05/12 00:39:34;;;;;;;;;;;;;;;20.81;68.52;99386.75;2090788;28;20007;-46
2022/05/12 00:40:36;;;;;;;;;;;;;;;20.82;68.27;99391.09;2090277;28;19933;-48
2022/05/12 00:41:36;;;;;;;;;;;;;;;20.82;68.74;99382.19;2088830;28;19969;-47
2022/05/12 00:42:51;;;;;;;;;;;;;;;20.81;68.26;99380.50;2091580;28;20049;-45
2022/05/12 00:43:55;;;;;;;;;;;;;;;20.81;68.68;99383.19;2091383;28;19928;-46
2022/05/12 00:44:56;;;;;;;;;;;;;;;20.82;68.70;99387.59;2092993;28;19932;-46
2022/05/12 00:45:57;;;;;;;;;;;;;;;20.81;68.95;99384.06;2100410;28;19928;-46
2022/05/12 00:46:59;;;;;;;;;;;;;;;20.80;69.10;99382.38;2096723;28;19938;-48
2022/05/12 00:47:59;;;;;;;;;;;;;;;20.79;69.13;99378.03;2097920;28;19924;-47
2022/05/12 00:49:03;;;;;;;;;;;;;;;20.79;69.15;99383.41;2094026;28;19996;-47
2022/05/12 00:50:04;;;;;;;;;;;;;;;20.75;69.06;99380.31;2092741;28;19932;-49
2022/05/12 00:51:07;;;;;;;;;;;;;;;20.78;68.86;99384.44;2091297;28;19935;-45
2022/05/12 00:52:11;;;;;;;;;;;;;;;20.79;68.83;99388.81;2092794;28;19984;-46
2022/05/12 00:53:13;;;;;;;;;;;;;;;20.79;68.55;99388.81;2090580;28;19951;-45
2022/05/12 00:54:20;;;;;;;;;;;;;;;20.80;68.50;99386.94;2093700;28;19957;-46
2022/05/12 00:55:24;;;;;;;;;;;;;;;20.81;68.51;99380.50;2087999;28;20023;-47
2022/05/12 00:56:25;;;;;;;;;;;;;;;20.82;68.65;99392.97;2090395;28;20491;-46
2022/05/12 00:57:27;;;;;;;;;;;;;;;20.80;68.39;99384.25;2090509;28;19932;-46
2022/05/12 00:58:30;;;;;;;;;;;;;;;20.82;68.40;99387.59;2089290;28;21185;-48
2022/05/12 00:59:32;;;;;;;;;;;;;;;20.81;68.54;99386.75;2093915;28;19939;-48
2022/05/12 01:00:34;;;;;;;;;;;;;;;20.81;68.62;99386.75;2091718;28;19928;-48
2022/05/12 01:01:36;;;;;;;;;;;;;;;20.82;68.14;99383.00;2093719;28;20069;-45
2022/05/12 01:02:39;;;;;;;;;;;;;;;20.82;68.23;99384.88;2094052;28;20352;-50
2022/05/12 01:03:42;;;;;;;;;;;;;;;20.83;68.17;99389.25;2090878;28;20406;-49
2022/05/12 01:04:44;;;;;;;;;;;;;;;20.83;68.55;99378.44;2087219;28;20301;-52
2022/05/12 01:05:45;;;;;;;;;;;;;;;20.82;68.09;99383.00;2090109;28;20591;-49
2022/05/12 01:06:47;;;;;;;;;;;;;;;20.81;68.69;99385.91;2091686;28;19932;-52
2022/05/12 01:07:48;;;;;;;;;;;;;;;20.81;68.49;99385.91;2091241;28;19932;-53
2022/05/12 01:08:49;;;;;;;;;;;;;;;20.80;68.69;99389.63;2094451;28;20034;-51
2022/05/12 01:09:52;;;;;;;;;;;;;;;20.81;68.53;99385.91;2089782;28;19924;-53
2022/05/12 01:10:55;;;;;;;;;;;;;;;20.80;69.22;99384.25;2095171;28;19928;-44
2022/05/12 01:11:55;;;;;;;;;;;;;;;20.79;68.98;99382.59;2090480;28;20149;-53
2022/05/12 01:12:58;;;;;;;;;;;;;;;20.79;68.96;99388.81;2093093;28;20456;-55
2022/05/12 01:14:00;;;;;;;;;;;;;;;20.79;69.16;99382.59;2092808;28;19924;-51
2022/05/12 01:15:02;;;;;;;;;;;;;;;20.79;69.09;99385.28;2090043;28;19942;-48
2022/05/12 01:16:03;;;;;;;;;;;;;;;20.78;68.83;99383.59;2094633;28;19928;-53
2022/05/12 01:17:05;;;;;;;;;;;;;;;20.78;68.77;99384.44;2088750;28;20351;-54
2022/05/12 01:18:07;;;;;;;;;;;;;;;20.80;68.95;99385.06;2095005;28;20014;-50
2022/05/12 01:19:11;;;;;;;;;;;;;;;20.81;68.43;99389.44;2091711;28;19950;-52
2022/05/12 01:20:11;;;;;;;;;;;;;;;20.82;68.58;99387.59;2090026;28;19924;-50
2022/05/12 01:21:13;;;;;;;;;;;;;;;20.82;68.17;99392.97;2090840;28;19967;-49
2022/05/12 01:22:24;;;;;;;;;;;;;;;20.84;68.18;99390.88;2094783;28;19924;-55
2022/05/12 01:23:28;;;;;;;;;;;;;;;20.81;68.23;99386.75;2091784;28;20417;-52
2022/05/12 01:24:31;;;;;;;;;;;;;;;20.81;68.49;99389.44;2089206;28;19927;-52
2022/05/12 01:25:32;;;;;;;;;;;;;;;20.82;68.40;99392.97;2088967;28;20013;-54
2022/05/12 01:26:33;;;;;;;;;;;;;;;20.82;68.65;99392.97;2093544;28;20374;-54
2022/05/12 01:27:34;;;;;;;;;;;;;;;20.80;68.88;99392.34;2091504;28;19934;-51
2022/05/12 01:28:36;;;;;;;;;;;;;;;20.81;68.19;99391.28;2093402;28;19986;-50
2022/05/12 01:29:37;;;;;;;;;;;;;;;20.82;68.18;99390.28;2091970;28;20035;-46
2022/05/12 01:30:38;;;;;;;;;;;;;;;20.84;68.43;99390.88;2091633;28;19956;-52
2022/05/12 01:31:39;;;;;;;;;;;;;;;20.82;68.32;99388.41;2092438;28;22135;-46
2022/05/12 01:32:40;;;;;;;;;;;;;;;20.83;68.36;99389.25;2093704;28;19931;-46
2022/05/12 01:33:42;;;;;;;;;;;;;;;20.82;68.23;99390.28;2091173;28;19928;-47
2022/05/12 01:34:42;;;;;;;;;;;;;;;20.82;68.55;99396.50;2095747;28;21948;-47
2022/05/12 01:35:44;;;;;;;;;;;;;;;20.83;68.35;99394.63;2089731;28;20706;-47
2022/05/12 01:36:44;;;;;;;;;;;;;;;20.84;68.40;99396.28;2093035;28;19928;-48
2022/05/12 01:37:46;;;;;;;;;;;;;;;20.81;68.40;99404.78;2092036;28;19924;-49
2022/05/12 01:38:48;;;;;;;;;;;;;;;20.82;68.39;99401.88;2093817;28;19928;-51
2022/05/12 01:39:50;;;;;;;;;;;;;;;20.82;68.09;99396.50;2098053;28;19928;-48
2022/05/12 01:40:52;;;;;;;;;;;;;;;20.82;68.43;99392.97;2092478;28;19959;-48
2022/05/12 01:41:54;;;;;;;;;;;;;;;20.79;68.81;99398.78;2096280;28;19932;-48
2022/05/12 01:42:54;;;;;;;;;;;;;;;20.80;67.72;99398.56;2099382;28;19936;-47
2022/05/12 01:43:56;;;;;;;;;;;;;;;20.81;68.48;99394.00;2097338;28;19924;-48
2022/05/12 01:44:56;;;;;;;;;;;;;;;20.80;68.63;99395.03;2092987;28;20421;-53
2022/05/12 01:45:59;;;;;;;;;;;;;;;20.79;68.46;99396.91;2089361;28;20018;-49
2022/05/12 01:47:00;;;;;;;;;;;;;;;20.77;68.62;99392.75;2093679;28;19968;-46
2022/05/12 01:48:02;;;;;;;;;;;;;;;20.78;68.28;99397.91;2093260;28;19959;-46
2022/05/12 01:49:04;;;;;;;;;;;;;;;20.80;67.70;99393.16;2094387;28;20361;-49
2022/05/12 01:50:05;;;;;;;;;;;;;;;20.80;68.37;99395.84;2093845;28;19924;-49
2022/05/12 01:51:07;;;;;;;;;;;;;;;20.82;67.93;99392.97;2087670;28;20290;-49
2022/05/12 01:52:10;;;;;;;;;;;;;;;20.82;68.26;99390.28;2095160;28;20902;-49
2022/05/12 01:53:12;;;;;;;;;;;;;;;20.81;68.33;99391.28;2093018;28;19924;-48
2022/05/12 01:54:13;;;;;;;;;;;;;;;20.80;67.85;99395.03;2091215;28;20275;-49
2022/05/12 01:55:17;;;;;;;;;;;;;;;20.81;68.10;99402.06;2089791;28;19943;-45
2022/05/12 01:56:17;;;;;;;;;;;;;;;20.81;68.20;99396.69;2090347;28;19931;-49
2022/05/12 01:57:19;;;;;;;;;;;;;;;20.81;68.28;99397.53;2091424;28;20358;-52
2022/05/12 01:58:20;;;;;;;;;;;;;;;20.82;67.51;99392.97;2098682;28;20398;-49
2022/05/12 01:59:23;;;;;;;;;;;;;;;20.81;68.23;99394.00;2100448;28;20050;-48
2022/05/12 02:00:26;;;;;;;;;;;;;;;20.80;68.20;99395.03;2094696;28;19950;-51
2022/05/12 02:01:27;;;;;;;;;;;;;;;20.80;68.46;99395.84;2090921;28;19971;-48
2022/05/12 02:02:28;;;;;;;;;;;;;;;20.81;68.33;99396.69;2095696;28;19939;-49
2022/05/12 02:03:29;;;;;;;;;;;;;;;20.80;68.27;99395.03;2092861;28;19931;-49
2022/05/12 02:04:30;;;;;;;;;;;;;;;20.81;68.42;99391.28;2092573;28;19928;-47
2022/05/12 02:05:32;;;;;;;;;;;;;;;20.81;68.74;99394.00;2089855;28;19938;-48
2022/05/12 02:06:34;;;;;;;;;;;;;;;20.80;68.56;99395.03;2092687;28;19928;-50
2022/05/12 02:07:35;;;;;;;;;;;;;;;20.82;68.39;99395.66;2088911;28;19932;-46
2022/05/12 02:08:36;;;;;;;;;;;;;;;20.82;68.38;99388.41;2093309;28;19928;-52
2022/05/12 02:09:39;;;;;;;;;;;;;;;20.81;68.06;99388.59;2090420;28;19932;-51
2022/05/12 02:10:41;;;;;;;;;;;;;;;20.82;67.98;99392.97;2093132;28;19928;-49
2022/05/12 02:11:42;;;;;;;;;;;;;;;20.81;68.27;99391.28;2089891;28;20405;-49
2022/05/12 02:12:43;;;;;;;;;;;;;;;20.79;67.95;99393.38;2093876;28;19939;-48
2022/05/12 02:13:44;;;;;;;;;;;;;;;20.80;68.00;99389.63;2091282;28;20390;-47
2022/05/12 02:14:45;;;;;;;;;;;;;;;20.77;68.40;99385.47;2092977;28;19928;-48
2022/05/12 02:15:47;;;;;;;;;;;;;;;20.80;67.85;99395.03;2093400;28;19933;-45
2022/05/12 02:16:48;;;;;;;;;;;;;;;20.79;67.63;99388.81;2096026;28;19932;-47
2022/05/12 02:17:50;;;;;;;;;;;;;;;20.80;68.51;99390.47;2101069;28;19964;-49
2022/05/12 02:18:51;;;;;;;;;;;;;;;20.81;68.09;99396.69;2098177;28;22804;-47
2022/05/12 02:19:52;;;;;;;;;;;;;;;20.80;68.43;99395.84;2091441;28;19985;-50
2022/05/12 02:20:53;;;;;;;;;;;;;;;20.80;68.19;99390.47;2098133;28;19989;-46
2022/05/12 02:21:56;;;;;;;;;;;;;;;20.80;67.99;99390.47;2090507;28;20018;-49
2022/05/12 02:22:57;;;;;;;;;;;;;;;20.80;68.39;99395.03;2093836;28;19932;-49
2022/05/12 02:23:59;;;;;;;;;;;;;;;20.80;67.96;99389.63;2094759;28;20023;-48
2022/05/12 02:25:01;;;;;;;;;;;;;;;20.82;68.02;99395.66;2093632;28;19989;-51
2022/05/12 02:26:03;;;;;;;;;;;;;;;20.80;67.63;99385.06;2093241;28;19927;-48
2022/05/12 02:27:04;;;;;;;;;;;;;;;20.79;68.31;99394.19;2093800;28;19924;-48
2022/05/12 02:28:05;;;;;;;;;;;;;;;20.80;68.37;99395.03;2093712;28;19924;-46
2022/05/12 02:29:06;;;;;;;;;;;;;;;20.79;67.77;99396.06;2092750;28;20749;-50
2022/05/12 02:30:08;;;;;;;;;;;;;;;20.78;68.45;99391.69;2091579;28;19928;-47
2022/05/12 02:31:09;;;;;;;;;;;;;;;20.81;68.17;99392.16;2091229;28;19932;-45
2022/05/12 02:32:10;;;;;;;;;;;;;;;20.81;68.28;99391.28;2091888;28;19925;-46
2022/05/12 02:33:11;;;;;;;;;;;;;;;20.81;67.84;99385.91;2096604;28;20027;-46
2022/05/12 02:34:13;;;;;;;;;;;;;;;20.79;68.29;99383.41;2094028;28;19935;-46
2022/05/12 02:35:14;;;;;;;;;;;;;;;20.81;68.40;99391.28;2094786;28;20431;-47
2022/05/12 02:36:15;;;;;;;;;;;;;;;20.80;68.30;99381.56;2096742;28;19928;-47
2022/05/12 02:37:16;;;;;;;;;;;;;;;20.80;68.10;99384.25;2092776;28;20190;-46
2022/05/12 02:38:18;;;;;;;;;;;;;;;20.81;67.93;99388.59;2092873;28;19932;-46
2022/05/12 02:39:18;;;;;;;;;;;;;;;20.78;67.86;99389.00;2096133;28;19928;-46
2022/05/12 02:40:22;;;;;;;;;;;;;;;20.78;67.80;99380.91;2090343;28;21035;-46
2022/05/12 02:41:23;;;;;;;;;;;;;;;20.79;68.04;99385.28;2090769;28;19924;-48
2022/05/12 02:42:25;;;;;;;;;;;;;;;20.77;67.94;99390.88;2091683;28;20377;-49
2022/05/12 02:43:25;;;;;;;;;;;;;;;20.78;68.06;99392.53;2092710;28;19928;-47
2022/05/12 02:44:27;;;;;;;;;;;;;;;20.80;67.86;99390.47;2092408;28;19978;-49
2022/05/12 02:45:28;;;;;;;;;;;;;;;20.76;68.06;99394.59;2093039;28;19936;-47
2022/05/12 02:46:29;;;;;;;;;;;;;;;20.76;68.29;99389.22;2091022;28;21272;-44
2022/05/12 02:47:30;;;;;;;;;;;;;;;20.73;68.36;99382.34;2092895;28;20278;-50
2022/05/12 02:48:33;;;;;;;;;;;;;;;20.73;67.87;99389.63;2092304;28;19934;-45
2022/05/12 02:49:33;;;;;;;;;;;;;;;20.73;68.12;99385.06;2093823;28;19947;-46
2022/05/12 02:50:35;;;;;;;;;;;;;;;20.77;67.91;99395.44;2093705;28;20030;-48
2022/05/12 02:51:36;;;;;;;;;;;;;;;20.77;68.40;99390.88;2091213;28;19940;-46
2022/05/12 02:52:37;;;;;;;;;;;;;;;20.77;67.94;99392.75;2091228;28;20394;-48
2022/05/12 02:53:39;;;;;;;;;;;;;;;20.78;68.44;99389.00;2092784;28;20448;-45
2022/05/12 02:54:40;;;;;;;;;;;;;;;20.75;68.57;99391.09;2096799;28;19924;-48
2022/05/12 02:55:42;;;;;;;;;;;;;;;20.75;67.93;99393.78;2092565;28;19963;-47
2022/05/12 02:56:44;;;;;;;;;;;;;;;20.75;68.05;99393.78;2091716;28;20730;-46
2022/05/12 02:57:44;;;;;;;;;;;;;;;20.73;68.60;99385.06;2092326;28;19932;-46
2022/05/12 02:58:46;;;;;;;;;;;;;;;20.75;68.50;99390.22;2088915;28;19938;-46
2022/05/12 02:59:46;;;;;;;;;;;;;;;20.77;68.16;99390.03;2091513;28;19928;-50
2022/05/12 03:00:48;;;;;;;;;;;;;;;20.77;67.63;99393.56;2092306;28;20012;-45
2022/05/12 03:01:49;;;;;;;;;;;;;;;20.77;68.16;99390.03;2091235;28;19952;-45
2022/05/12 03:02:50;;;;;;;;;;;;;;;20.75;68.48;99388.38;2092288;28;19928;-45
2022/05/12 03:03:51;;;;;;;;;;;;;;;20.76;68.02;99386.50;2092229;28;19936;-46
2022/05/12 03:04:52;;;;;;;;;;;;;;;20.76;68.09;99383.81;2089271;28;19945;-47
2022/05/12 03:05:53;;;;;;;;;;;;;;;20.77;67.75;99390.03;2092717;28;19932;-47
2022/05/12 03:06:55;;;;;;;;;;;;;;;20.78;67.56;99391.69;2090437;28;21398;-47
2022/05/12 03:07:55;;;;;;;;;;;;;;;20.77;67.88;99390.03;2090275;28;20428;-45
2022/05/12 03:08:58;;;;;;;;;;;;;;;20.75;68.01;99388.38;2091822;28;19946;-44
2022/05/12 03:09:58;;;;;;;;;;;;;;;20.77;67.86;99390.03;2093088;28;20046;-46
2022/05/12 03:11:02;;;;;;;;;;;;;;;20.75;68.37;99396.47;2093596;28;19939;-47
2022/05/12 03:12:03;;;;;;;;;;;;;;;20.75;67.79;99388.38;2087694;28;19931;-46
2022/05/12 03:13:05;;;;;;;;;;;;;;;20.75;67.84;99392.91;2090816;28;20004;-47
2022/05/12 03:14:06;;;;;;;;;;;;;;;20.75;68.06;99387.53;2092697;28;20001;-47
2022/05/12 03:15:08;;;;;;;;;;;;;;;20.73;67.71;99382.34;2090922;28;20533;-44
2022/05/12 03:16:10;;;;;;;;;;;;;;;20.73;68.42;99387.75;2091459;28;19978;-45
2022/05/12 03:17:12;;;;;;;;;;;;;;;20.71;68.12;99381.72;2099980;28;20585;-46
2022/05/12 03:18:12;;;;;;;;;;;;;;;20.71;68.05;99381.72;2096379;28;19932;-45
2022/05/12 03:19:14;;;;;;;;;;;;;;;20.71;67.70;99391.66;2093956;28;20566;-45
2022/05/12 03:20:17;;;;;;;;;;;;;;;20.72;68.19;99387.94;2093181;28;19928;-47
2022/05/12 03:21:19;;;;;;;;;;;;;;;20.72;67.66;99388.75;2091030;28;19928;-51
2022/05/12 03:22:20;;;;;;;;;;;;;;;20.74;67.81;99389.41;2090992;28;19954;-46
2022/05/12 03:23:22;;;;;;;;;;;;;;;20.73;67.89;99387.75;2092472;28;19968;-47
2022/05/12 03:24:22;;;;;;;;;;;;;;;20.75;68.25;99388.38;2091486;28;19999;-49
2022/05/12 03:25:24;;;;;;;;;;;;;;;20.75;68.15;99387.53;2097731;28;19924;-45
2022/05/12 03:26:27;;;;;;;;;;;;;;;20.73;68.49;99384.22;2094119;28;19928;-46
2022/05/12 03:27:27;;;;;;;;;;;;;;;20.74;67.97;99385.88;2101578;28;19932;-45
2022/05/12 03:28:29;;;;;;;;;;;;;;;20.74;68.18;99385.88;2101251;28;21312;-47
2022/05/12 03:29:29;;;;;;;;;;;;;;;20.74;68.25;99386.69;2100760;28;20347;-47
2022/05/12 03:30:31;;;;;;;;;;;;;;;20.73;67.65;99390.44;2100232;28;19924;-47
2022/05/12 03:31:32;;;;;;;;;;;;;;;20.73;68.07;99389.63;2099093;28;19935;-48
2022/05/12 03:32:33;;;;;;;;;;;;;;;20.73;67.69;99393.13;2100249;28;19940;-47
2022/05/12 03:33:34;;;;;;;;;;;;;;;20.71;68.40;99392.50;2101524;28;21102;-46
2022/05/12 03:34:35;;;;;;;;;;;;;;;20.72;68.22;99388.75;2098941;28;19939;-46
2022/05/12 03:35:36;;;;;;;;;;;;;;;20.72;68.18;99391.44;2101593;28;19931;-44
2022/05/12 03:36:39;;;;;;;;;;;;;;;20.71;68.43;99395.19;2100148;28;19939;-46
2022/05/12 03:37:40;;;;;;;;;;;;;;;20.73;68.08;99395.84;2100795;28;19928;-48
2022/05/12 03:38:42;;;;;;;;;;;;;;;20.74;67.61;99393.97;2100730;28;20625;-46
2022/05/12 03:39:43;;;;;;;;;;;;;;;20.70;68.23;99396.22;2099565;28;20038;-49
2022/05/12 03:40:44;;;;;;;;;;;;;;;20.72;67.53;99399.53;2089663;28;19931;-48
2022/05/12 03:41:46;;;;;;;;;;;;;;;20.70;67.96;99396.22;2096630;28;19936;-46
2022/05/12 03:42:48;;;;;;;;;;;;;;;20.71;67.75;99399.75;2093008;28;19924;-46
2022/05/12 03:45:09;;;;;;;;;;;;;;;20.72;67.54;99399.53;2093773;28;19932;-48
2022/05/12 03:46:12;;;;;;;;;;;;;;;20.74;67.67;99397.50;2094623;28;20013;-44
2022/05/12 03:47:14;;;;;;;;;;;;;;;20.71;67.67;99397.88;2094765;28;19928;-45
2022/05/12 03:48:14;;;;;;;;;;;;;;;20.71;67.69;99397.88;2094289;28;19932;-45
2022/05/12 03:49:16;;;;;;;;;;;;;;;20.73;67.61;99403.09;2096837;28;19924;-46
2022/05/12 03:50:18;;;;;;;;;;;;;;;20.72;67.77;99404.09;2093305;28;19967;-47
2022/05/12 03:51:20;;;;;;;;;;;;;;;20.73;67.75;99395.84;2095989;28;19960;-47
2022/05/12 03:52:20;;;;;;;;;;;;;;;20.72;67.68;99398.72;2099905;28;20007;-44
2022/05/12 03:53:22;;;;;;;;;;;;;;;20.72;67.71;99393.31;2094127;28;19928;-45
2022/05/12 03:54:23;;;;;;;;;;;;;;;20.72;67.84;99393.31;2097549;28;19928;-47
2022/05/12 03:55:26;;;;;;;;;;;;;;;20.72;67.90;99399.53;2097071;28;20019;-48
2022/05/12 03:56:27;;;;;;;;;;;;;;;20.73;67.61;99395.84;2094375;28;19928;-44
2022/05/12 03:57:30;;;;;;;;;;;;;;;20.72;67.58;99399.53;2090242;28;19982;-44
2022/05/12 03:58:31;;;;;;;;;;;;;;;20.73;67.65;99400.41;2089464;28;19935;-47
2022/05/12 03:59:33;;;;;;;;;;;;;;;20.73;67.50;99397.69;2095862;28;20035;-46
2022/05/12 04:00:34;;;;;;;;;;;;;;;20.72;67.74;99394.16;2100292;28;20068;-47
2022/05/12 04:01:36;;;;;;;;;;;;;;;20.71;67.32;99397.88;2093445;28;19979;-49
2022/05/12 04:02:37;;;;;;;;;;;;;;;20.73;67.67;99397.69;2097107;28;20397;-47
2022/05/12 04:03:38;;;;;;;;;;;;;;;20.73;67.60;99395.00;2090245;28;19932;-54
2022/05/12 04:04:39;;;;;;;;;;;;;;;20.73;67.92;99392.31;2089286;28;19924;-48
2022/05/12 04:05:41;;;;;;;;;;;;;;;20.71;67.58;99391.66;2087597;28;20537;-47
2022/05/12 04:06:42;;;;;;;;;;;;;;;20.71;67.52;99392.50;2092120;28;20949;-46
2022/05/12 04:07:44;;;;;;;;;;;;;;;20.73;67.43;99397.69;2091440;28;20022;-45
2022/05/12 04:08:45;;;;;;;;;;;;;;;20.72;67.61;99396.84;2090724;28;19939;-47
2022/05/12 04:09:47;;;;;;;;;;;;;;;20.72;67.73;99394.16;2097184;28;19995;-48
2022/05/12 04:10:49;;;;;;;;;;;;;;;20.71;67.55;99392.50;2099300;28;19928;-47
2022/05/12 04:11:51;;;;;;;;;;;;;;;20.72;67.92;99401.41;2097910;28;19966;-48
2022/05/12 04:12:53;;;;;;;;;;;;;;;20.71;67.92;99397.88;2091311;28;19932;-47
2022/05/12 04:13:55;;;;;;;;;;;;;;;20.71;67.69;99399.75;2090841;28;19928;-45
2022/05/12 04:14:55;;;;;;;;;;;;;;;20.71;67.71;99400.59;2088270;28;20029;-46
2022/05/12 04:15:57;;;;;;;;;;;;;;;20.72;67.74;99404.09;2088844;28;20029;-47
2022/05/12 04:16:58;;;;;;;;;;;;;;;20.73;67.60;99400.41;2096157;28;19932;-49
2022/05/12 04:18:02;;;;;;;;;;;;;;;20.70;68.05;99400.81;2085717;28;22166;-47
2022/05/12 04:19:05;;;;;;;;;;;;;;;20.70;67.87;99401.63;2089297;28;19932;-48
2022/05/12 04:20:07;;;;;;;;;;;;;;;20.71;67.49;99405.97;2088736;28;19924;-44
2022/05/12 04:21:09;;;;;;;;;;;;;;;20.69;67.40;99405.34;2091659;28;19932;-48
2022/05/12 04:22:09;;;;;;;;;;;;;;;20.72;67.71;99406.81;2093973;28;19924;-46
2022/05/12 04:23:11;;;;;;;;;;;;;;;20.72;67.64;99410.31;2094667;28;19938;-48
2022/05/12 04:24:12;;;;;;;;;;;;;;;20.73;67.73;99411.19;2087374;28;20022;-47
2022/05/12 04:25:13;;;;;;;;;;;;;;;20.73;67.45;99400.41;2097510;28;19932;-46
2022/05/12 04:26:14;;;;;;;;;;;;;;;20.71;67.75;99408.66;2095719;28;20584;-44
2022/05/12 04:27:15;;;;;;;;;;;;;;;20.72;67.61;99409.50;2098121;28;19939;-47
2022/05/12 04:28:17;;;;;;;;;;;;;;;20.73;67.50;99408.47;2091672;28;20811;-47
2022/05/12 04:29:19;;;;;;;;;;;;;;;20.71;67.45;99407.84;2090658;28;19967;-46
2022/05/12 04:30:20;;;;;;;;;;;;;;;20.70;67.76;99409.72;2087452;28;19927;-47
2022/05/12 04:31:22;;;;;;;;;;;;;;;20.70;67.71;99401.63;2090858;28;19935;-49
2022/05/12 04:32:24;;;;;;;;;;;;;;;20.67;67.66;99406.56;2088415;28;19928;-46
2022/05/12 04:36:04;;;;;;;;;;;;;;;20.69;67.59;99410.72;2092250;28;20011;-48
2022/05/12 04:37:05;;;;;;;;;;;;;;;20.69;67.74;99413.41;2090225;28;19932;-51
2022/05/12 04:38:06;;;;;;;;;;;;;;;20.69;67.74;99405.34;2089544;28;19973;-50
2022/05/12 04:39:08;;;;;;;;;;;;;;;20.71;67.70;99414.06;2087760;28;20530;-53
2022/05/12 04:40:10;;;;;;;;;;;;;;;20.69;67.81;99405.34;2091536;28;20438;-49
2022/05/12 04:41:11;;;;;;;;;;;;;;;20.71;67.58;99419.44;2090407;28;22881;-53
2022/05/12 04:42:12;;;;;;;;;;;;;;;20.67;67.80;99415.50;2098542;28;20385;-49
2022/05/12 04:43:13;;;;;;;;;;;;;;;20.68;67.79;99409.06;2096544;28;19933;-51
2022/05/12 04:44:15;;;;;;;;;;;;;;;20.70;67.50;99411.59;2093870;28;19977;-49
2022/05/12 04:45:17;;;;;;;;;;;;;;;20.69;67.59;99410.72;2089132;28;19932;-52
2022/05/12 04:46:18;;;;;;;;;;;;;;;20.70;67.85;99414.28;2091418;28;19932;-47
2022/05/12 04:47:19;;;;;;;;;;;;;;;20.67;67.85;99407.41;2091815;28;20355;-51
2022/05/12 04:48:20;;;;;;;;;;;;;;;20.67;67.90;99412.81;2092548;28;19931;-51
2022/05/12 04:49:22;;;;;;;;;;;;;;;20.67;67.57;99412.81;2092449;28;20015;-51
2022/05/12 04:50:25;;;;;;;;;;;;;;;20.64;67.94;99413.19;2092070;28;19928;-55
2022/05/12 04:51:27;;;;;;;;;;;;;;;20.65;67.92;99412.16;2091285;28;19932;-47
2022/05/12 04:52:28;;;;;;;;;;;;;;;20.66;67.61;99413.81;2088947;28;19940;-52
2022/05/12 04:53:30;;;;;;;;;;;;;;;20.65;67.74;99412.16;2090932;28;19940;-49
2022/05/12 04:54:32;;;;;;;;;;;;;;;20.66;67.77;99419.22;2089212;28;19931;-52
2022/05/12 04:55:33;;;;;;;;;;;;;;;20.66;67.82;99418.38;2088990;28;19924;-52
2022/05/12 04:56:34;;;;;;;;;;;;;;;20.65;67.95;99420.25;2090477;28;19930;-52
2022/05/12 04:57:35;;;;;;;;;;;;;;;20.67;67.79;99426.28;2091246;28;19939;-53
2022/05/12 04:58:37;;;;;;;;;;;;;;;20.67;67.73;99422.72;2090583;28;20377;-56
2022/05/12 04:59:39;;;;;;;;;;;;;;;20.67;67.50;99425.44;2090840;28;20302;-53
2022/05/12 05:00:43;;;;;;;;;;;;;;;20.66;67.63;99421.91;2092680;28;20337;-55
2022/05/12 05:01:45;;;;;;;;;;;;;;;20.66;67.76;99421.06;2089269;28;20027;-54
2022/05/12 05:02:46;;;;;;;;;;;;;;;20.66;67.52;99416.50;2093963;28;19928;-52
2022/05/12 05:03:47;;;;;;;;;;;;;;;20.66;67.32;99421.91;2094876;28;19931;-52
2022/05/12 05:04:48;;;;;;;;;;;;;;;20.66;67.52;99427.28;2090334;28;20020;-56
2022/05/12 05:05:50;;;;;;;;;;;;;;;20.66;68.08;99421.06;2095311;28;19932;-55
2022/05/12 05:06:51;;;;;;;;;;;;;;;20.66;68.51;99424.59;2095786;28;19942;-51
2022/05/12 05:07:53;;;;;;;;;;;;;;;20.64;68.72;99423.97;2092082;28;19997;-53
2022/05/12 05:08:53;;;;;;;;;;;;;;;20.63;68.26;99418.78;2093016;28;19928;-53
2022/05/12 05:09:55;;;;;;;;;;;;;;;20.61;69.09;99424.34;2092618;28;20378;-51
2022/05/12 05:10:56;;;;;;;;;;;;;;;20.62;68.32;99425.22;2090784;28;19932;-49
2022/05/12 05:11:57;;;;;;;;;;;;;;;20.63;68.52;99427.69;2087992;28;19928;-54
2022/05/12 05:12:58;;;;;;;;;;;;;;;20.64;68.11;99429.34;2096156;28;20007;-50
2022/05/12 05:13:59;;;;;;;;;;;;;;;20.64;68.34;99432.03;2094070;28;19932;-54
2022/05/12 05:15:01;;;;;;;;;;;;;;;20.65;68.29;99430.22;2090744;28;19943;-48
2022/05/12 05:16:03;;;;;;;;;;;;;;;20.63;67.68;99430.38;2090937;28;19938;-51
2022/05/12 05:17:03;;;;;;;;;;;;;;;20.65;67.84;99430.22;2089725;28;20556;-45
2022/05/12 05:18:06;;;;;;;;;;;;;;;20.64;67.65;99432.03;2092433;28;19977;-50
2022/05/12 05:19:06;;;;;;;;;;;;;;;20.64;68.17;99434.75;2084748;28;19935;-48
2022/05/12 05:20:10;;;;;;;;;;;;;;;20.63;68.44;99438.47;2082841;28;19938;-46
2022/05/12 05:21:11;;;;;;;;;;;;;;;20.63;68.81;99433.09;2087154;28;19975;-51
2022/05/12 05:22:12;;;;;;;;;;;;;;;20.62;68.79;99431.44;2086149;28;19935;-47
2022/05/12 05:23:15;;;;;;;;;;;;;;;20.62;68.28;99441.38;2088847;28;19935;-45
2022/05/12 05:24:17;;;;;;;;;;;;;;;20.62;68.62;99436.00;2086066;28;19967;-47
2022/05/12 05:25:17;;;;;;;;;;;;;;;20.64;68.11;99436.59;2090723;28;19928;-46